Time;durP1;ratioP1;P1;durP2;ratioP2;P2;SDS_P1;SDS_P2;PMS_P1;PMS_P2;Temp;Humidity;BMP_temperature;BMP_pressure;BME280_temperature;BME280_humidity;BME280_pressure;Samples;Min_cycle;Max_cycle;Signal;HPM_P1;HPM_P2
2021/08/01 00:02:12;;;;;;;22.60;12.57;;;;;;;22.73;91.42;97113.06;5067590;28;20024;-89
2021/08/01 00:04:38;;;;;;;30.10;12.90;;;;;;;22.60;90.70;97104.59;5075149;28;20027;-90
2021/08/01 00:07:04;;;;;;;24.77;12.95;;;;;;;22.70;90.78;97123.47;5068117;28;20024;-91
2021/08/01 00:09:29;;;;;;;27.58;13.40;;;;;;;22.39;91.97;97096.19;5064112;28;20035;-90
2021/08/01 00:11:55;;;;;;;25.83;13.32;;;;;;;22.36;91.83;97083.78;5067375;28;20394;-90
2021/08/01 00:14:20;;;;;;;24.83;13.73;;;;;;;22.24;92.88;97082.47;5064816;28;20035;-90
2021/08/01 00:16:46;;;;;;;26.63;13.50;;;;;;;22.27;93.60;97105.81;5062388;28;20028;-90
2021/08/01 00:19:12;;;;;;;20.67;13.30;;;;;;;22.10;94.05;97084.09;5055141;28;20024;-91
2021/08/01 00:21:38;;;;;;;29.80;13.45;;;;;;;22.08;94.77;97094.31;5066397;28;20044;-90
2021/08/01 00:24:03;;;;;;;23.77;13.75;;;;;;;22.12;95.03;97094.78;5066979;28;20518;-90
2021/08/01 00:26:29;;;;;;;22.10;13.57;;;;;;;22.05;96.17;97091.97;5057936;28;20089;-90
2021/08/01 00:28:54;;;;;;;24.83;12.90;;;;;;;22.07;95.92;97108.97;5074877;28;20028;-90
2021/08/01 00:31:20;;;;;;;26.58;14.48;;;;;;;22.02;97.53;97110.53;5058291;28;20075;-89
2021/08/01 00:33:46;;;;;;;25.33;13.93;;;;;;;22.15;97.47;97127.97;5074833;28;20024;-89
2021/08/01 00:36:11;;;;;;;25.30;15.48;;;;;;;22.05;97.73;97123.78;5067332;28;20028;-90
2021/08/01 00:38:37;;;;;;;21.90;14.57;;;;;;;21.96;98.85;97142.06;5065661;28;20036;-90
2021/08/01 00:41:03;;;;;;;19.45;14.63;;;;;;;21.82;99.84;97131.84;5065971;28;20031;-89
2021/08/01 00:43:29;;;;;;;25.70;14.73;;;;;;;21.81;99.36;97127.41;5057847;28;20035;-90
2021/08/01 00:45:54;;;;;;;26.02;14.57;;;;;;;21.75;100.00;97125.38;5074836;28;20111;-89
2021/08/01 00:48:23;;;;;;;22.00;14.30;;;;;;;21.70;100.00;97126.94;5066496;28;20093;-90
2021/08/01 00:50:49;;;;;;;20.73;14.18;;;;;;;21.80;100.00;97150.22;5072223;28;20028;-91
2021/08/01 00:53:15;;;;;;;34.65;14.60;;;;;;;21.74;100.00;97148.19;5054462;28;20036;-90
2021/08/01 00:55:41;;;;;;;22.88;13.82;;;;;;;21.69;99.54;97144.31;5070403;28;20036;-89
2021/08/01 00:58:07;;;;;;;23.25;13.88;;;;;;;21.41;100.00;97113.91;5068832;28;20123;-90
2021/08/01 01:03:15;;;;;;;25.60;14.32;;;;;;;21.46;100.00;97141.44;5086079;28;20616;-90
2021/08/01 01:05:46;;;;;;;29.25;15.23;;;;;;;21.37;100.00;97139.75;5061616;28;20032;-89
2021/08/01 01:08:36;;;;;;;25.38;14.07;;;;;;;21.36;100.00;97125.31;5063201;28;20484;-90
2021/08/01 01:11:02;;;;;;;22.85;14.10;;;;;;;21.28;100.00;97119.03;5097248;28;20064;-90
2021/08/01 01:13:31;;;;;;;29.05;15.02;;;;;;;21.35;100.00;97114.59;5094361;28;20104;-90
2021/08/01 01:15:59;;;;;;;20.80;14.90;;;;;;;21.15;100.00;97086.06;5079504;28;20024;-91
2021/08/01 01:18:34;;;;;;;19.73;14.48;;;;;;;21.18;100.00;97085.69;5069640;28;20058;-90
2021/08/01 01:21:24;;;;;;;27.85;14.43;;;;;;;21.33;100.00;97108.47;5078088;28;20048;-91
2021/08/01 01:24:14;;;;;;;20.80;14.80;;;;;;;21.27;100.00;97107.28;5078595;28;20027;-90
2021/08/01 01:27:06;;;;;;;31.35;15.13;;;;;;;21.20;100.00;97089.94;5086474;28;20051;-90
2021/08/01 01:29:51;;;;;;;22.42;15.10;;;;;;;21.30;100.00;97112.38;5077710;28;20036;-90
2021/08/01 01:32:31;;;;;;;20.80;14.35;;;;;;;21.34;100.00;97102.88;5057701;28;20040;-89
2021/08/01 01:35:20;;;;;;;22.40;15.05;;;;;;;21.36;100.00;97102.69;5070313;28;20033;-90
2021/08/01 01:37:50;;;;;;;25.65;15.90;;;;;;;21.16;100.00;97079.59;5062628;28;20051;-90
2021/08/01 01:40:20;;;;;;;29.08;15.55;;;;;;;21.19;100.00;97081.97;5077702;28;20110;-90
2021/08/01 01:42:49;;;;;;;27.55;15.23;;;;;;;21.36;100.00;97105.41;5077174;28;20036;-90
2021/08/01 01:45:18;;;;;;;30.63;15.32;;;;;;;21.32;100.00;97091.28;5071317;28;20075;-89
2021/08/01 01:47:45;;;;;;;26.67;15.05;;;;;;;21.23;100.00;97083.31;5068537;28;20028;-90
2021/08/01 01:50:11;;;;;;;31.65;15.18;;;;;;;21.18;100.00;97091.16;5069334;28;20064;-90
2021/08/01 01:52:37;;;;;;;25.48;15.45;;;;;;;21.26;100.00;97113.75;5059202;28;20107;-89
2021/08/01 01:55:04;;;;;;;25.10;16.35;;;;;;;21.13;100.00;97102.56;5065496;28;20067;-90
2021/08/01 01:57:30;;;;;;;22.98;15.90;;;;;;;21.16;100.00;97106.81;5057157;28;20028;-90
2021/08/01 01:59:57;;;;;;;30.55;16.17;;;;;;;21.14;100.00;97111.53;5077256;28;20453;-89
2021/08/01 02:02:23;;;;;;;29.55;15.52;;;;;;;21.15;100.00;97115.97;5069375;28;20031;-90
2021/08/01 02:04:48;;;;;;;26.02;15.68;;;;;;;21.13;100.00;97104.41;5069321;28;20028;-89
2021/08/01 02:07:14;;;;;;;24.48;14.77;;;;;;;21.13;100.00;97101.69;5077139;28;20625;-90
2021/08/01 02:09:42;;;;;;;25.65;15.55;;;;;;;21.12;100.00;97102.72;5068241;28;20027;-90
2021/08/01 02:12:19;;;;;;;24.90;14.80;;;;;;;21.13;100.00;97109.88;5081367;28;20020;-90
2021/08/01 02:15:00;;;;;;;26.75;15.35;;;;;;;21.17;100.00;97116.63;5075738;28;20398;-90
2021/08/01 02:17:32;;;;;;;26.00;16.35;;;;;;;21.15;100.00;97116.81;5061053;28;20036;-90
2021/08/01 02:20:00;;;;;;;26.20;16.45;;;;;;;21.10;100.00;97116.50;5056659;28;20024;-90
2021/08/01 02:22:26;;;;;;;27.35;15.68;;;;;;;21.03;100.00;97110.84;5064114;28;20044;-90
2021/08/01 02:24:52;;;;;;;26.73;15.85;;;;;;;20.98;100.00;97110.50;5073725;28;20494;-90
2021/08/01 02:27:18;;;;;;;27.75;16.67;;;;;;;20.97;100.00;97111.53;5073001;28;20067;-90
2021/08/01 02:29:44;;;;;;;28.38;16.02;;;;;;;20.99;100.00;97109.50;5065954;28;20479;-90
2021/08/01 02:32:10;;;;;;;29.52;15.98;;;;;;;21.04;100.00;97114.44;5080150;28;20108;-90
2021/08/01 02:34:36;;;;;;;25.73;15.43;;;;;;;21.04;100.00;97117.97;5072464;28;20036;-89
2021/08/01 02:37:02;;;;;;;25.23;14.73;;;;;;;20.96;100.00;97125.28;5055364;28;20557;-90
2021/08/01 02:39:28;;;;;;;27.63;15.68;;;;;;;20.89;100.00;97127.84;5055744;28;20028;-90
2021/08/01 02:41:54;;;;;;;27.80;15.63;;;;;;;20.88;100.00;97131.59;5057932;28;20028;-90
2021/08/01 02:44:30;;;;;;;27.60;14.68;;;;;;;20.82;100.00;97129.56;5092755;28;20051;-90
2021/08/01 02:46:57;;;;;;;25.77;14.85;;;;;;;20.79;100.00;97127.16;5059098;28;20028;-90
2021/08/01 02:49:27;;;;;;;30.50;15.05;;;;;;;20.78;100.00;97122.75;5061138;28;20108;-90
2021/08/01 02:51:54;;;;;;;25.98;15.07;;;;;;;20.83;100.00;97133.09;5055403;28;20024;-90
2021/08/01 02:54:21;;;;;;;24.23;14.85;;;;;;;20.76;100.00;97135.66;5061559;28;20084;-91
2021/08/01 02:56:48;;;;;;;27.23;16.05;;;;;;;20.69;100.00;97128.34;5076505;28;20020;-91
2021/08/01 02:59:14;;;;;;;25.63;15.27;;;;;;;20.66;100.00;97142.25;5063064;28;20421;-91
2021/08/01 03:01:40;;;;;;;27.65;15.07;;;;;;;20.63;100.00;97132.56;5064215;28;20032;-91
2021/08/01 03:04:06;;;;;;;27.20;16.20;;;;;;;20.68;100.00;97137.50;5076274;28;20493;-91
2021/08/01 03:06:34;;;;;;;24.23;15.80;;;;;;;20.60;100.00;97143.78;5060714;28;20061;-91
2021/08/01 03:09:03;;;;;;;35.53;14.60;;;;;;;20.62;100.00;97141.75;5081501;28;20572;-91
2021/08/01 03:11:35;;;;;;;25.00;15.57;;;;;;;20.63;100.00;97134.44;5056577;28;20020;-91
2021/08/01 03:14:01;;;;;;;25.95;15.65;;;;;;;20.67;100.00;97143.97;5075221;28;20542;-91
2021/08/01 03:16:27;;;;;;;30.60;15.43;;;;;;;20.65;100.00;97141.41;5069163;28;20035;-92
2021/08/01 03:18:53;;;;;;;22.40;15.10;;;;;;;20.68;100.00;97138.34;5072185;28;20028;-91
2021/08/01 03:21:18;;;;;;;31.95;14.60;;;;;;;20.71;100.00;97138.00;5080591;28;20422;-91
2021/08/01 03:23:44;;;;;;;36.33;15.65;;;;;;;20.74;100.00;97134.97;5072025;28;20071;-91
2021/08/01 03:26:09;;;;;;;29.27;14.85;;;;;;;20.73;100.00;97146.88;5070482;28;20024;-91
2021/08/01 03:28:35;;;;;;;33.75;15.30;;;;;;;20.76;100.00;97151.97;5070613;28;20063;-91
2021/08/01 03:31:01;;;;;;;28.38;15.00;;;;;;;20.75;100.00;97147.53;5066607;28;20020;-90
2021/08/01 03:33:26;;;;;;;29.98;15.38;;;;;;;20.80;100.00;97152.47;5063273;28;20411;-91
2021/08/01 03:35:52;;;;;;;27.80;15.15;;;;;;;20.76;100.00;97157.41;5064137;28;20092;-90
2021/08/01 03:38:18;;;;;;;23.25;15.35;;;;;;;20.76;100.00;97157.41;5067062;28;20032;-91
2021/08/01 03:40:43;;;;;;;25.80;14.75;;;;;;;20.71;100.00;97157.03;5075528;28;20170;-91
2021/08/01 03:43:09;;;;;;;26.13;15.48;;;;;;;20.73;100.00;97157.75;5074815;28;20181;-90
2021/08/01 03:45:34;;;;;;;21.40;13.60;;;;;;;20.75;100.00;97152.97;5074999;28;20098;-91
2021/08/01 03:48:00;;;;;;;25.15;14.50;;;;;;;20.75;100.00;97155.69;5083392;28;20032;-91
2021/08/01 03:50:25;;;;;;;22.73;14.02;;;;;;;20.82;100.00;97156.75;5069341;28;20085;-90
2021/08/01 03:52:51;;;;;;;22.80;14.63;;;;;;;20.76;100.00;97149.25;5054713;28;20023;-87
2021/08/01 03:55:17;;;;;;;22.42;14.55;;;;;;;20.85;100.00;97155.56;5054474;28;20028;-91
2021/08/01 03:57:43;;;;;;;21.92;15.25;;;;;;;20.80;100.00;97147.03;5079643;28;20107;-93
2021/08/01 04:00:09;;;;;;;24.23;14.75;;;;;;;20.86;100.00;97154.50;5076263;28;20047;-93
2021/08/01 04:02:36;;;;;;;21.20;14.45;;;;;;;20.99;100.00;97163.88;5076736;28;20028;-92
2021/08/01 04:05:06;;;;;;;25.92;14.55;;;;;;;20.98;100.00;97170.31;5076617;28;20035;-92
2021/08/01 04:07:31;;;;;;;26.90;14.45;;;;;;;21.03;100.00;97157.09;5076655;28;20024;-92
2021/08/01 04:09:57;;;;;;;21.98;14.18;;;;;;;21.00;100.00;97153.84;5060326;28;20032;-92
2021/08/01 04:12:41;;;;;;;29.60;15.00;;;;;;;21.12;100.00;97165.28;5072151;28;20486;-92
2021/08/01 04:15:07;;;;;;;49.63;29.05;;;;;;;21.17;100.00;97154.72;5064672;28;20100;-90
2021/08/01 04:17:33;;;;;;;34.22;14.82;;;;;;;21.38;100.00;97165.97;5069592;28;20475;-91
2021/08/01 04:19:59;;;;;;;27.00;15.10;;;;;;;21.46;99.95;97160.50;5065835;28;20028;-92
2021/08/01 04:22:25;;;;;;;26.30;14.88;;;;;;;21.37;100.00;97151.50;5069076;28;20105;-91
2021/08/01 04:24:52;;;;;;;27.48;14.10;;;;;;;21.47;99.91;97154.06;5085649;28;20028;-92
2021/08/01 04:27:26;;;;;;;23.45;14.52;;;;;;;21.61;98.62;97159.63;5064674;28;20032;-90
2021/08/01 04:29:52;;;;;;;28.13;15.18;;;;;;;21.74;98.14;97169.13;5064125;28;20024;-91
2021/08/01 04:32:17;;;;;;;24.75;14.60;;;;;;;22.43;93.95;97166.53;5071699;28;20017;-90
2021/08/01 04:34:43;;;;;;;23.30;13.65;;;;;;;23.79;84.71;97175.78;5062005;28;20028;-91
2021/08/01 04:37:08;;;;;;;21.00;14.23;;;;;;;24.48;79.27;97166.31;5067639;28;20497;-90
2021/08/01 04:39:34;;;;;;;28.17;15.23;;;;;;;24.25;79.62;97171.88;5067492;28;20028;-90
2021/08/01 04:42:00;;;;;;;29.52;14.88;;;;;;;23.76;82.12;97166.06;5059541;28;20029;-91
2021/08/01 04:44:25;;;;;;;27.73;13.73;;;;;;;23.51;83.55;97164.63;5058924;28;20028;-90
2021/08/01 04:46:51;;;;;;;28.10;15.05;;;;;;;23.43;84.21;97171.00;5075060;28;20028;-91
2021/08/01 04:49:16;;;;;;;27.48;15.70;;;;;;;23.30;85.10;97169.91;5069641;28;20020;-90
2021/08/01 04:51:42;;;;;;;26.60;15.25;;;;;;;23.25;85.40;97158.69;5070294;28;20032;-91
2021/08/01 04:54:08;;;;;;;21.52;14.60;;;;;;;23.27;85.37;97164.81;5079223;28;20028;-90
2021/08/01 04:56:33;;;;;;;27.92;14.32;;;;;;;23.24;85.90;97174.22;5074213;28;20106;-90
2021/08/01 04:59:05;;;;;;;27.45;14.57;;;;;;;23.27;85.76;97162.06;5075745;28;20024;-92
2021/08/01 05:01:30;;;;;;;20.40;14.45;;;;;;;23.40;85.54;97163.19;5079417;28;20506;-91
2021/08/01 05:04:15;;;;;;;23.60;15.20;;;;;;;23.44;84.99;97150.03;5079833;28;20036;-93
2021/08/01 05:06:42;;;;;;;29.70;15.27;;;;;;;23.61;84.35;97165.22;5110838;28;20027;-94
2021/08/01 05:09:08;;;;;;;64.50;38.00;;;;;;;23.74;84.31;97168.16;5078762;28;20038;-75
2021/08/01 05:11:33;;;;;;;23.17;16.13;;;;;;;23.95;83.61;97181.94;5093938;28;20027;-78
2021/08/01 05:13:59;;;;;;;46.72;16.33;;;;;;;24.05;83.08;97179.78;5068567;28;20028;-77
2021/08/01 05:16:24;;;;;;;45.83;17.27;;;;;;;24.22;82.00;97175.00;5064728;28;20390;-76
2021/08/01 05:18:50;;;;;;;28.13;15.02;;;;;;;24.38;80.93;97171.22;5071713;28;20402;-76
2021/08/01 05:21:20;;;;;;;27.88;14.82;;;;;;;24.43;79.55;97160.53;5090871;28;20044;-76
2021/08/01 05:23:46;;;;;;;35.17;15.80;;;;;;;24.53;79.31;97180.25;5056419;28;20554;-75
2021/08/01 05:26:12;;;;;;;21.00;14.50;;;;;;;24.89;78.01;97181.13;5081248;28;20111;-76
2021/08/01 05:28:37;;;;;;;23.58;14.63;;;;;;;25.44;73.74;97144.00;5078445;28;20479;-74
2021/08/01 05:31:03;;;;;;;30.60;18.92;;;;;;;26.67;69.10;97177.97;5076035;28;20093;-75
2021/08/01 05:33:28;;;;;;;29.95;15.05;;;;;;;28.02;63.01;97193.25;5089473;28;20081;-76
2021/08/01 05:35:54;;;;;;;27.20;14.15;;;;;;;29.13;57.21;97181.09;5072091;28;20034;-77
2021/08/01 05:38:19;;;;;;;21.83;12.30;;;;;;;30.72;52.24;97184.25;5092816;28;20031;-76
2021/08/01 05:40:45;;;;;;;21.42;12.57;;;;;;;32.36;47.62;97196.53;5092935;28;20043;-74
2021/08/01 05:43:11;;;;;;;17.95;11.90;;;;;;;33.78;44.30;97187.34;5058199;28;20029;-77
2021/08/01 05:45:36;;;;;;;22.55;11.27;;;;;;;35.13;41.37;97200.06;5072875;28;20066;-74
2021/08/01 05:48:02;;;;;;;17.33;11.00;;;;;;;35.53;38.16;97203.34;5080832;28;20020;-74
2021/08/01 05:50:28;;;;;;;38.28;12.45;;;;;;;36.23;37.37;97205.16;5089948;28;20052;-75
2021/08/01 05:52:53;;;;;;;25.83;19.40;;;;;;;36.77;36.59;97217.00;5062637;28;20103;-75
2021/08/01 05:55:19;;;;;;;25.67;11.73;;;;;;;37.38;35.53;97220.97;5075177;28;20031;-75
2021/08/01 05:57:45;;;;;;;26.23;11.70;;;;;;;38.37;34.03;97210.31;5055881;28;20059;-77
2021/08/01 06:00:11;;;;;;;33.13;12.52;;;;;;;38.20;32.93;97220.09;5089758;28;20020;-76
2021/08/01 06:02:37;;;;;;;24.67;12.00;;;;;;;38.29;33.20;97224.00;5063197;28;20403;-75
2021/08/01 06:05:08;;;;;;;22.52;12.18;;;;;;;37.35;34.33;97218.72;5073594;28;20031;-76
2021/08/01 06:07:44;;;;;;;20.90;12.30;;;;;;;37.18;34.72;97212.50;5084479;28;20467;-77
2021/08/01 06:10:10;;;;;;;27.95;11.80;;;;;;;38.16;33.21;97216.16;5067716;28;20495;-76
2021/08/01 06:12:36;;;;;;;22.45;11.55;;;;;;;39.08;31.60;97220.56;5084810;28;20020;-75
2021/08/01 06:15:02;;;;;;;19.63;11.40;;;;;;;39.13;31.74;97212.19;5076874;28;21311;-75
2021/08/01 06:17:28;;;;;;;28.85;12.52;;;;;;;38.79;32.00;97221.22;5083245;28;20059;-75
2021/08/01 06:20:02;;;;;;;16.35;11.00;;;;;;;39.33;31.34;97221.34;5069442;28;20028;-77
2021/08/01 06:22:27;;;;;;;16.40;10.57;;;;;;;40.13;30.52;97224.88;5066059;28;20499;-76
2021/08/01 06:24:53;;;;;;;21.80;10.85;;;;;;;40.57;29.75;97206.03;5092082;28;20096;-75
2021/08/01 06:27:19;;;;;;;17.70;10.52;;;;;;;40.75;29.36;97215.66;5092008;28;20066;-75
2021/08/01 06:29:45;;;;;;;26.98;11.68;;;;;;;40.68;29.60;97217.97;5087455;28;20029;-76
2021/08/01 06:32:10;;;;;;;24.92;10.95;;;;;;;40.26;29.27;97198.13;5054926;28;20427;-76
2021/08/01 06:34:36;;;;;;;15.95;10.15;;;;;;;40.19;29.24;97208.84;5054849;28;20043;-78
2021/08/01 06:37:02;;;;;;;19.15;10.35;;;;;;;40.88;28.40;97192.53;5055434;28;20043;-74
2021/08/01 06:39:27;;;;;;;19.17;10.18;;;;;;;41.09;28.60;97199.59;5091563;28;20027;-75
2021/08/01 06:41:53;;;;;;;17.63;9.88;;;;;;;41.27;27.57;97197.13;5068542;28;20043;-75
2021/08/01 06:44:19;;;;;;;22.23;9.65;;;;;;;41.35;27.93;97188.09;5092724;28;20024;-75
2021/08/01 06:46:44;;;;;;;20.48;9.52;;;;;;;42.71;26.45;97183.19;5091924;28;20053;-76
2021/08/01 06:49:10;;;;;;;29.38;19.73;;;;;;;40.87;28.20;97187.19;5091884;28;20036;-75
2021/08/01 06:51:35;;;;;;;18.70;9.98;;;;;;;41.40;27.25;97171.16;5091430;28;20024;-75
2021/08/01 06:54:01;;;;;;;16.52;9.48;;;;;;;41.44;27.64;97180.66;5060113;28;20056;-76
2021/08/01 06:56:26;;;;;;;17.67;9.88;;;;;;;41.20;27.74;97154.53;5064371;28;20101;-75
2021/08/01 06:58:52;;;;;;;17.60;10.13;;;;;;;41.54;27.15;97172.91;5086376;28;20023;-75
2021/08/01 07:01:17;;;;;;;30.10;10.88;;;;;;;41.74;27.21;97183.03;5071369;28;20411;-75
2021/08/01 07:03:43;;;;;;;24.17;10.35;;;;;;;42.55;26.12;97157.25;5084261;28;20466;-74
2021/08/01 07:06:10;;;;;;;16.52;9.25;;;;;;;42.61;26.10;97158.88;5058712;28;20028;-77
2021/08/01 07:08:37;;;;;;;18.67;9.60;;;;;;;43.09;25.38;97165.00;5070821;28;20140;-77
2021/08/01 07:11:03;;;;;;;36.25;10.13;;;;;;;43.22;25.41;97166.97;5085595;28;20035;-76
2021/08/01 07:13:28;;;;;;;25.50;10.15;;;;;;;41.37;26.82;97158.56;5074004;28;20031;-76
2021/08/01 07:16:00;;;;;;;17.00;9.82;;;;;;;41.73;26.80;97161.69;5092384;28;20032;-75
2021/08/01 07:18:26;;;;;;;19.10;9.02;;;;;;;42.23;26.23;97154.47;5090805;28;20032;-76
2021/08/01 07:20:51;;;;;;;18.48;10.50;;;;;;;42.35;26.07;97140.75;5090916;28;20082;-76
2021/08/01 07:23:17;;;;;;;19.70;9.73;;;;;;;42.47;25.84;97148.72;5082833;28;20075;-76
2021/08/01 07:25:42;;;;;;;18.85;8.68;;;;;;;42.81;25.36;97142.75;5070784;28;20037;-75
2021/08/01 07:28:08;;;;;;;22.42;10.23;;;;;;;44.18;24.09;97156.38;5085959;28;20044;-75
2021/08/01 07:30:34;;;;;;;36.15;10.52;;;;;;;44.34;24.39;97153.16;5055117;28;20479;-76
2021/08/01 07:32:59;;;;;;;18.70;9.98;;;;;;;42.16;25.93;97149.22;5053777;28;20122;-75
2021/08/01 07:35:25;;;;;;;39.33;13.35;;;;;;;43.13;25.49;97160.41;5062619;28;20410;-76
2021/08/01 07:37:51;;;;;;;18.25;9.55;;;;;;;43.47;24.60;97145.88;5090637;28;20522;-75
2021/08/01 07:40:16;;;;;;;23.52;9.70;;;;;;;43.94;24.30;97155.81;5073853;28;20560;-76
2021/08/01 07:42:42;;;;;;;25.63;10.13;;;;;;;44.42;23.86;97155.22;5090547;28;20032;-82
2021/08/01 07:45:31;;;;;;;32.67;10.75;;;;;;;43.55;24.37;97150.81;5073585;28;20330;-83
2021/08/01 07:47:56;;;;;;;42.88;15.05;;;;;;;44.29;24.05;97151.31;5090963;28;20024;-82
2021/08/01 07:50:22;;;;;;;26.48;9.63;;;;;;;45.23;22.86;97148.19;5090809;28;20036;-83
2021/08/01 07:52:48;;;;;;;24.75;11.27;;;;;;;45.76;22.26;97150.88;5087165;28;20476;-83
2021/08/01 07:55:16;;;;;;;21.42;9.82;;;;;;;45.52;22.48;97144.81;5070640;28;20098;-83
2021/08/01 07:57:43;;;;;;;16.33;9.25;;;;;;;44.57;22.97;97147.22;5053715;28;20089;-84
2021/08/01 08:00:12;;;;;;;21.83;9.48;;;;;;;43.48;24.39;97141.09;5054050;28;20717;-82
2021/08/01 08:02:37;;;;;;;18.58;9.50;;;;;;;43.36;24.56;97140.78;5071624;28;20369;-81
2021/08/01 08:05:03;;;;;;;16.63;9.18;;;;;;;44.94;23.28;97145.94;5090443;28;20399;-82
2021/08/01 08:07:29;;;;;;;22.10;10.65;;;;;;;45.63;22.69;97140.50;5090828;28;20103;-83
2021/08/01 08:09:54;;;;;;;19.15;9.07;;;;;;;46.40;21.44;97136.88;5091657;28;20181;-83
2021/08/01 08:12:20;;;;;;;13.85;8.18;;;;;;;45.09;22.64;97136.19;5090039;28;20124;-83
2021/08/01 08:14:46;;;;;;;20.30;8.43;;;;;;;45.02;22.31;97139.50;5073930;28;20059;-83
2021/08/01 08:17:12;;;;;;;19.27;9.23;;;;;;;46.79;20.62;97131.00;5090388;28;20124;-83
2021/08/01 08:19:40;;;;;;;16.65;10.48;;;;;;;47.29;19.93;97126.28;5073109;28;20046;-82
2021/08/01 08:22:07;;;;;;;15.70;8.15;;;;;;;48.05;19.60;97122.47;5076640;28;20036;-81
2021/08/01 08:24:34;;;;;;;14.10;8.23;;;;;;;48.44;18.52;97106.91;5071053;28;20499;-81
2021/08/01 08:26:59;;;;;;;25.17;8.00;;;;;;;48.77;18.29;97102.03;5082655;28;20028;-82
2021/08/01 08:29:25;;;;;;;15.85;8.45;;;;;;;49.08;17.87;97099.47;5090208;28;20032;-82
2021/08/01 08:31:54;;;;;;;17.13;7.95;;;;;;;47.90;18.69;97104.06;5089814;28;20024;-82
2021/08/01 08:34:21;;;;;;;160.50;15.05;;;;;;;47.38;19.16;97100.72;5090073;28;20032;-82
2021/08/01 08:36:49;;;;;;;38.33;9.52;;;;;;;48.54;18.65;97103.63;5090097;28;20068;-82
2021/08/01 08:39:18;;;;;;;25.77;9.70;;;;;;;47.68;19.13;97098.72;5073360;28;20024;-76
2021/08/01 08:41:44;;;;;;;19.40;8.88;;;;;;;47.45;19.46;97103.00;5072663;28;20028;-75
2021/08/01 08:44:10;;;;;;;14.38;8.35;;;;;;;48.08;19.34;97099.91;5073141;28;20031;-75
2021/08/01 08:46:37;;;;;;;18.02;8.55;;;;;;;48.86;18.54;97099.91;5089918;28;20032;-76
2021/08/01 08:49:07;;;;;;;15.95;8.60;;;;;;;48.76;18.32;97095.50;5072986;28;20043;-75
2021/08/01 08:51:33;;;;;;;23.90;8.75;;;;;;;48.64;18.16;97084.13;5089735;28;20116;-79
2021/08/01 08:53:59;;;;;;;50.60;10.25;;;;;;;48.60;17.94;97083.19;5072774;28;20178;-75
2021/08/01 08:56:25;;;;;;;24.73;9.27;;;;;;;48.02;19.59;97091.94;5072956;28;20044;-76
2021/08/01 08:58:52;;;;;;;16.52;8.90;;;;;;;47.88;18.91;97075.19;5072895;28;20032;-75
2021/08/01 09:01:18;;;;;;;26.35;8.80;;;;;;;46.75;19.45;97067.66;5075333;28;20044;-75
2021/08/01 09:03:47;;;;;;;24.30;9.68;;;;;;;47.95;18.68;97066.97;5079013;28;20032;-74
2021/08/01 09:06:13;;;;;;;21.13;9.05;;;;;;;49.64;17.08;97068.44;5056278;28;20471;-76
2021/08/01 09:08:40;;;;;;;20.58;12.38;;;;;;;49.71;16.72;97060.13;5072285;28;20047;-76
2021/08/01 09:11:07;;;;;;;32.40;9.30;;;;;;;47.55;18.35;97058.09;5069459;28;20036;-76
2021/08/01 09:13:47;;;;;;;15.20;8.45;;;;;;;47.35;18.85;97051.19;5085608;28;20028;-76
2021/08/01 09:16:13;;;;;;;17.25;8.40;;;;;;;48.17;18.11;97051.53;5067845;28;20121;-75
2021/08/01 09:18:39;;;;;;;21.58;9.00;;;;;;;48.77;17.67;97050.88;5052599;28;20055;-76
2021/08/01 09:21:05;;;;;;;18.15;9.05;;;;;;;49.49;17.07;97049.22;5073086;28;20040;-75
2021/08/01 09:23:31;;;;;;;20.45;8.40;;;;;;;48.82;17.30;97036.47;5073456;28;20033;-75
2021/08/01 09:26:05;;;;;;;20.52;9.15;;;;;;;48.25;17.79;97027.94;5072774;28;20422;-77
2021/08/01 09:28:31;;;;;;;16.17;8.43;;;;;;;47.67;17.67;97014.78;5072964;28;20020;-77
2021/08/01 09:31:03;;;;;;;19.65;8.68;;;;;;;48.06;17.51;97019.91;5058748;28;20040;-75
2021/08/01 09:33:32;;;;;;;16.55;8.57;;;;;;;49.22;16.46;97028.88;5093322;28;20020;-75
2021/08/01 09:36:15;;;;;;;13.88;7.93;;;;;;;49.22;16.67;97020.34;5092743;28;20422;-75
2021/08/01 09:38:59;;;;;;;17.55;7.68;;;;;;;50.64;15.34;97021.72;5076182;28;20039;-75
2021/08/01 09:41:36;;;;;;;14.02;8.38;;;;;;;50.87;15.07;97008.47;5079171;28;20028;-75
2021/08/01 09:44:04;;;;;;;24.13;8.68;;;;;;;51.48;15.20;97014.47;5092138;28;20107;-75
2021/08/01 09:46:58;;;;;;;22.13;9.55;;;;;;;52.15;14.67;97015.94;5092869;28;20036;-74
2021/08/01 09:49:31;;;;;;;14.95;7.88;;;;;;;52.77;13.86;97008.16;5080517;28;20024;-73
2021/08/01 09:52:03;;;;;;;12.95;7.80;;;;;;;53.91;12.96;97011.56;5072551;28;20187;-76
2021/08/01 09:54:49;;;;;;;13.68;7.63;;;;;;;53.83;12.66;97001.22;5056123;28;20033;-75
2021/08/01 09:57:19;;;;;;;16.05;7.80;;;;;;;52.86;13.24;96992.38;5085215;28;20097;-76
2021/08/01 09:59:47;;;;;;;13.65;7.97;;;;;;;53.61;12.69;96991.53;5058972;28;20161;-76
2021/08/01 10:02:13;;;;;;;14.85;8.43;;;;;;;53.63;12.53;96986.25;5072632;28;20091;-76
2021/08/01 10:04:40;;;;;;;24.63;8.25;;;;;;;52.89;13.20;96985.06;5055533;28;20482;-76
2021/08/01 10:07:14;;;;;;;12.75;7.22;;;;;;;53.05;12.85;96980.03;5072240;28;20035;-76
2021/08/01 10:09:49;;;;;;;17.65;7.72;;;;;;;53.08;12.85;96975.59;5080837;28;20020;-76
2021/08/01 10:12:15;;;;;;;11.32;7.20;;;;;;;51.93;13.00;96963.25;5068841;28;20471;-76
2021/08/01 10:14:44;;;;;;;17.35;8.13;;;;;;;51.72;13.30;96964.88;5094077;28;20028;-77
2021/08/01 10:17:09;;;;;;;14.05;7.25;;;;;;;51.53;13.36;96950.56;5089064;28;20484;-76
2021/08/01 10:19:35;;;;;;;15.60;6.95;;;;;;;52.35;12.80;96949.03;5055387;28;20036;-76
2021/08/01 10:22:03;;;;;;;14.95;8.30;;;;;;;53.45;12.45;96957.34;5071706;28;20047;-77
2021/08/01 10:24:41;;;;;;;16.27;8.55;;;;;;;52.83;12.52;96940.84;5072262;28;20036;-76
2021/08/01 10:27:08;;;;;;;15.00;8.32;;;;;;;51.50;13.11;96943.59;5063530;28;20087;-76
2021/08/01 10:29:46;;;;;;;13.18;7.70;;;;;;;52.18;13.14;96943.75;5055414;28;20047;-75
2021/08/01 10:32:12;;;;;;;16.80;13.63;;;;;;;51.41;13.13;96943.78;5054798;28;20035;-76
2021/08/01 10:34:44;;;;;;;16.98;9.00;;;;;;;48.72;15.46;96932.63;5071781;28;20534;-75
2021/08/01 10:37:33;;;;;;;21.33;7.88;;;;;;;47.32;15.99;96915.78;5071677;28;20544;-77
2021/08/01 10:40:02;;;;;;;16.80;7.15;;;;;;;48.59;15.29;96913.09;5090595;28;20043;-77
2021/08/01 10:42:30;;;;;;;21.42;8.20;;;;;;;49.90;14.06;96918.75;5091710;28;20035;-74
2021/08/01 10:44:58;;;;;;;19.55;7.90;;;;;;;51.00;13.29;96938.78;5065699;28;20550;-76
2021/08/01 10:47:23;;;;;;;17.95;7.80;;;;;;;51.86;13.11;96926.00;5067908;28;20088;-76
2021/08/01 10:49:49;;;;;;;11.57;6.90;;;;;;;51.91;12.84;96933.44;5066596;28;20448;-75
2021/08/01 10:52:17;;;;;;;19.70;7.72;;;;;;;50.21;13.59;96918.00;5054385;28;20021;-75
2021/08/01 10:54:53;;;;;;;12.32;6.78;;;;;;;48.97;14.54;96912.72;5087113;28;20024;-75
2021/08/01 10:57:20;;;;;;;16.45;7.03;;;;;;;49.92;13.94;96910.72;5074551;28;20028;-75
2021/08/01 10:59:45;;;;;;;17.17;8.18;;;;;;;52.08;11.44;96904.44;5091760;28;20453;-75
2021/08/01 11:02:18;;;;;;;29.48;7.28;;;;;;;52.00;11.23;96885.50;5081377;28;20162;-75
2021/08/01 11:04:50;;;;;;;18.05;6.65;;;;;;;52.36;11.12;96884.97;5054458;28;20469;-75
2021/08/01 11:07:28;;;;;;;13.45;5.90;;;;;;;52.39;10.36;96881.34;5071074;28;20107;-76
2021/08/01 11:10:12;;;;;;;11.35;6.07;;;;;;;52.77;9.89;96879.47;5070953;28;20399;-76
2021/08/01 11:12:41;;;;;;;10.90;5.53;;;;;;;53.50;9.41;96881.78;5079330;28;20189;-76
2021/08/01 11:15:11;;;;;;;6.72;4.93;;;;;;;53.05;9.41;96868.47;5070847;28;20475;-75
2021/08/01 11:17:50;;;;;;;12.53;6.10;;;;;;;53.24;9.57;96876.09;5070939;28;20036;-75
2021/08/01 11:20:15;;;;;;;43.17;6.40;;;;;;;52.53;9.81;96872.16;5072034;28;20287;-76
2021/08/01 11:22:44;;;;;;;9.93;6.15;;;;;;;52.38;10.15;96867.41;5078305;28;20414;-75
2021/08/01 11:25:19;;;;;;;14.35;6.05;;;;;;;52.32;10.07;96858.34;5090789;28;20550;-75